sensor_id;sensor_type;location;lat;lon;timestamp;temperature;humidity
47813;DHT22;34221;45.296;9.516;2022-08-21T00:00:13;24.20;82.10
47813;DHT22;34221;45.296;9.516;2022-08-21T00:00:30;24.20;85.20
47813;DHT22;34221;45.296;9.516;2022-08-21T00:00:46;24.20;82.90
47813;DHT22;34221;45.296;9.516;2022-08-21T00:01:05;24.20;84.20
47813;DHT22;34221;45.296;9.516;2022-08-21T00:01:25;24.20;83.90
47813;DHT22;34221;45.296;9.516;2022-08-21T00:01:41;24.20;82.30
47813;DHT22;34221;45.296;9.516;2022-08-21T00:01:57;24.20;82.70
47813;DHT22;34221;45.296;9.516;2022-08-21T00:02:16;24.20;82.60
47813;DHT22;34221;45.296;9.516;2022-08-21T00:02:32;24.20;82.80
47813;DHT22;34221;45.296;9.516;2022-08-21T00:02:52;24.20;81.00
47813;DHT22;34221;45.296;9.516;2022-08-21T00:03:11;24.20;81.00
47813;DHT22;34221;45.296;9.516;2022-08-21T00:03:26;24.20;84.10
47813;DHT22;34221;45.296;9.516;2022-08-21T00:03:41;24.20;81.60
47813;DHT22;34221;45.296;9.516;2022-08-21T00:03:56;24.20;81.00
47813;DHT22;34221;45.296;9.516;2022-08-21T00:04:11;24.20;82.30
47813;DHT22;34221;45.296;9.516;2022-08-21T00:04:26;24.20;81.00
47813;DHT22;34221;45.296;9.516;2022-08-21T00:04:41;24.20;83.60
47813;DHT22;34221;45.296;9.516;2022-08-21T00:04:56;24.20;82.10
47813;DHT22;34221;45.296;9.516;2022-08-21T00:05:11;24.20;83.50
47813;DHT22;34221;45.296;9.516;2022-08-21T00:05:27;24.20;82.50
47813;DHT22;34221;45.296;9.516;2022-08-21T00:05:49;24.20;81.80
47813;DHT22;34221;45.296;9.516;2022-08-21T00:06:05;24.20;83.20
47813;DHT22;34221;45.296;9.516;2022-08-21T00:06:20;24.20;83.20
47813;DHT22;34221;45.296;9.516;2022-08-21T00:06:36;24.20;82.50
47813;DHT22;34221;45.296;9.516;2022-08-21T00:06:52;24.20;82.90
47813;DHT22;34221;45.296;9.516;2022-08-21T00:07:07;24.20;85.20
47813;DHT22;34221;45.296;9.516;2022-08-21T00:07:22;24.20;85.50
47813;DHT22;34221;45.296;9.516;2022-08-21T00:07:37;24.20;84.00
47813;DHT22;34221;45.296;9.516;2022-08-21T00:07:52;24.20;82.60
47813;DHT22;34221;45.296;9.516;2022-08-21T00:08:07;24.20;81.30
47813;DHT22;34221;45.296;9.516;2022-08-21T00:08:22;24.20;84.40
47813;DHT22;34221;45.296;9.516;2022-08-21T00:08:37;24.20;83.10
47813;DHT22;34221;45.296;9.516;2022-08-21T00:08:52;24.20;82.70
47813;DHT22;34221;45.296;9.516;2022-08-21T00:09:08;24.20;82.30
47813;DHT22;34221;45.296;9.516;2022-08-21T00:09:24;24.20;83.40
47813;DHT22;34221;45.296;9.516;2022-08-21T00:09:39;24.20;81.70
47813;DHT22;34221;45.296;9.516;2022-08-21T00:09:54;24.20;82.00
47813;DHT22;34221;45.296;9.516;2022-08-21T00:10:10;24.20;81.70
47813;DHT22;34221;45.296;9.516;2022-08-21T00:10:25;24.20;81.20
47813;DHT22;34221;45.296;9.516;2022-08-21T00:10:41;24.20;81.50
47813;DHT22;34221;45.296;9.516;2022-08-21T00:10:57;24.10;81.80
47813;DHT22;34221;45.296;9.516;2022-08-21T00:11:12;24.10;81.50
47813;DHT22;34221;45.296;9.516;2022-08-21T00:11:27;24.10;81.10
47813;DHT22;34221;45.296;9.516;2022-08-21T00:11:43;24.10;82.10
47813;DHT22;34221;45.296;9.516;2022-08-21T00:11:58;24.10;81.40
47813;DHT22;34221;45.296;9.516;2022-08-21T00:12:13;24.10;81.40
47813;DHT22;34221;45.296;9.516;2022-08-21T00:12:29;24.10;81.60
47813;DHT22;34221;45.296;9.516;2022-08-21T00:12:44;24.10;82.10
47813;DHT22;34221;45.296;9.516;2022-08-21T00:13:01;24.10;82.30
47813;DHT22;34221;45.296;9.516;2022-08-21T00:13:18;24.10;82.40
47813;DHT22;34221;45.296;9.516;2022-08-21T00:13:35;24.10;82.50
47813;DHT22;34221;45.296;9.516;2022-08-21T00:13:50;24.10;82.10
47813;DHT22;34221;45.296;9.516;2022-08-21T00:14:08;24.10;82.30
47813;DHT22;34221;45.296;9.516;2022-08-21T00:14:23;24.00;82.10
47813;DHT22;34221;45.296;9.516;2022-08-21T00:14:39;24.00;82.20
47813;DHT22;34221;45.296;9.516;2022-08-21T00:14:54;24.10;82.20
47813;DHT22;34221;45.296;9.516;2022-08-21T00:15:11;24.00;82.00
47813;DHT22;34221;45.296;9.516;2022-08-21T00:15:31;24.00;82.20
47813;DHT22;34221;45.296;9.516;2022-08-21T00:15:48;24.00;82.70
47813;DHT22;34221;45.296;9.516;2022-08-21T00:16:04;24.00;82.40
47813;DHT22;34221;45.296;9.516;2022-08-21T00:16:19;24.00;82.80
47813;DHT22;34221;45.296;9.516;2022-08-21T00:16:34;24.00;82.40
47813;DHT22;34221;45.296;9.516;2022-08-21T00:16:49;24.00;82.30
47813;DHT22;34221;45.296;9.516;2022-08-21T00:17:05;24.00;82.90
47813;DHT22;34221;45.296;9.516;2022-08-21T00:17:21;23.90;82.30
47813;DHT22;34221;45.296;9.516;2022-08-21T00:17:37;23.90;83.60
47813;DHT22;34221;45.296;9.516;2022-08-21T00:17:53;23.90;83.10
47813;DHT22;34221;45.296;9.516;2022-08-21T00:18:10;23.90;82.70
47813;DHT22;34221;45.296;9.516;2022-08-21T00:18:25;23.90;83.50
47813;DHT22;34221;45.296;9.516;2022-08-21T00:18:40;23.90;83.30
47813;DHT22;34221;45.296;9.516;2022-08-21T00:18:55;23.90;82.80
47813;DHT22;34221;45.296;9.516;2022-08-21T00:19:10;23.90;82.70
47813;DHT22;34221;45.296;9.516;2022-08-21T00:19:25;23.90;83.60
47813;DHT22;34221;45.296;9.516;2022-08-21T00:19:41;23.90;83.30
47813;DHT22;34221;45.296;9.516;2022-08-21T00:19:56;23.90;82.80
47813;DHT22;34221;45.296;9.516;2022-08-21T00:20:13;23.90;83.50
47813;DHT22;34221;45.296;9.516;2022-08-21T00:20:29;23.90;84.50
47813;DHT22;34221;45.296;9.516;2022-08-21T00:20:46;23.90;83.50
47813;DHT22;34221;45.296;9.516;2022-08-21T00:21:02;23.90;82.80
47813;DHT22;34221;45.296;9.516;2022-08-21T00:21:17;23.90;83.00
47813;DHT22;34221;45.296;9.516;2022-08-21T00:21:33;23.90;84.00
47813;DHT22;34221;45.296;9.516;2022-08-21T00:21:48;23.90;84.50
47813;DHT22;34221;45.296;9.516;2022-08-21T00:22:03;23.90;83.80
47813;DHT22;34221;45.296;9.516;2022-08-21T00:22:19;23.90;83.90
47813;DHT22;34221;45.296;9.516;2022-08-21T00:22:35;23.90;85.50
47813;DHT22;34221;45.296;9.516;2022-08-21T00:22:50;23.90;84.40
47813;DHT22;34221;45.296;9.516;2022-08-21T00:23:06;23.90;84.50
47813;DHT22;34221;45.296;9.516;2022-08-21T00:23:22;23.90;84.00
47813;DHT22;34221;45.296;9.516;2022-08-21T00:23:37;23.90;83.10
47813;DHT22;34221;45.296;9.516;2022-08-21T00:23:52;23.90;84.60
47813;DHT22;34221;45.296;9.516;2022-08-21T00:24:07;23.90;85.90
47813;DHT22;34221;45.296;9.516;2022-08-21T00:24:23;23.90;83.50
47813;DHT22;34221;45.296;9.516;2022-08-21T00:24:38;23.90;82.80
47813;DHT22;34221;45.296;9.516;2022-08-21T00:24:53;23.90;83.50
47813;DHT22;34221;45.296;9.516;2022-08-21T00:25:09;23.90;82.70
47813;DHT22;34221;45.296;9.516;2022-08-21T00:25:25;23.90;83.00
47813;DHT22;34221;45.296;9.516;2022-08-21T00:25:41;23.90;82.50
47813;DHT22;34221;45.296;9.516;2022-08-21T00:25:57;23.90;83.30
47813;DHT22;34221;45.296;9.516;2022-08-21T00:26:12;23.90;84.70
47813;DHT22;34221;45.296;9.516;2022-08-21T00:26:27;23.90;83.30
47813;DHT22;34221;45.296;9.516;2022-08-21T00:26:42;23.90;82.80
47813;DHT22;34221;45.296;9.516;2022-08-21T00:26:57;23.90;83.80
47813;DHT22;34221;45.296;9.516;2022-08-21T00:27:13;23.90;83.50
47813;DHT22;34221;45.296;9.516;2022-08-21T00:27:28;23.90;83.10
47813;DHT22;34221;45.296;9.516;2022-08-21T00:27:43;23.90;83.90
47813;DHT22;34221;45.296;9.516;2022-08-21T00:28:17;23.90;84.30
47813;DHT22;34221;45.296;9.516;2022-08-21T00:28:33;23.90;85.10
47813;DHT22;34221;45.296;9.516;2022-08-21T00:28:48;23.90;84.80
47813;DHT22;34221;45.296;9.516;2022-08-21T00:29:03;23.90;83.80
47813;DHT22;34221;45.296;9.516;2022-08-21T00:29:19;23.90;83.40
47813;DHT22;34221;45.296;9.516;2022-08-21T00:29:34;23.90;83.30
47813;DHT22;34221;45.296;9.516;2022-08-21T00:29:48;23.90;84.90
47813;DHT22;34221;45.296;9.516;2022-08-21T00:30:06;23.90;84.40
47813;DHT22;34221;45.296;9.516;2022-08-21T00:30:23;23.90;83.20
47813;DHT22;34221;45.296;9.516;2022-08-21T00:30:39;23.90;82.60
47813;DHT22;34221;45.296;9.516;2022-08-21T00:30:55;23.90;82.20
47813;DHT22;34221;45.296;9.516;2022-08-21T00:31:11;23.90;82.80
47813;DHT22;34221;45.296;9.516;2022-08-21T00:31:26;23.90;82.60
47813;DHT22;34221;45.296;9.516;2022-08-21T00:31:43;23.90;82.80
47813;DHT22;34221;45.296;9.516;2022-08-21T00:31:58;23.90;82.30
47813;DHT22;34221;45.296;9.516;2022-08-21T00:32:20;23.90;83.40
47813;DHT22;34221;45.296;9.516;2022-08-21T00:32:39;23.90;83.50
47813;DHT22;34221;45.296;9.516;2022-08-21T00:32:55;23.90;82.70
47813;DHT22;34221;45.296;9.516;2022-08-21T00:33:11;23.90;83.00
47813;DHT22;34221;45.296;9.516;2022-08-21T00:33:27;23.90;82.80
47813;DHT22;34221;45.296;9.516;2022-08-21T00:33:42;23.90;82.80
47813;DHT22;34221;45.296;9.516;2022-08-21T00:33:57;23.90;82.80
47813;DHT22;34221;45.296;9.516;2022-08-21T00:34:13;23.80;82.70
47813;DHT22;34221;45.296;9.516;2022-08-21T00:34:28;23.90;82.80
47813;DHT22;34221;45.296;9.516;2022-08-21T00:34:42;23.80;83.30
47813;DHT22;34221;45.296;9.516;2022-08-21T00:34:57;23.90;84.20
47813;DHT22;34221;45.296;9.516;2022-08-21T00:35:15;23.80;83.40
47813;DHT22;34221;45.296;9.516;2022-08-21T00:35:34;23.80;84.10
47813;DHT22;34221;45.296;9.516;2022-08-21T00:35:51;23.80;84.00
47813;DHT22;34221;45.296;9.516;2022-08-21T00:36:07;23.80;83.80
47813;DHT22;34221;45.296;9.516;2022-08-21T00:36:22;23.80;83.80
47813;DHT22;34221;45.296;9.516;2022-08-21T00:36:37;23.80;83.90
47813;DHT22;34221;45.296;9.516;2022-08-21T00:36:52;23.80;83.70
47813;DHT22;34221;45.296;9.516;2022-08-21T00:37:07;23.80;83.40
47813;DHT22;34221;45.296;9.516;2022-08-21T00:37:23;23.80;83.60
47813;DHT22;34221;45.296;9.516;2022-08-21T00:37:40;23.80;83.60
47813;DHT22;34221;45.296;9.516;2022-08-21T00:37:56;23.80;84.70
47813;DHT22;34221;45.296;9.516;2022-08-21T00:38:12;23.80;83.80
47813;DHT22;34221;45.296;9.516;2022-08-21T00:38:27;23.80;83.90
47813;DHT22;34221;45.296;9.516;2022-08-21T00:38:42;23.80;83.70
47813;DHT22;34221;45.296;9.516;2022-08-21T00:38:57;23.80;83.40
47813;DHT22;34221;45.296;9.516;2022-08-21T00:39:12;23.80;84.20
47813;DHT22;34221;45.296;9.516;2022-08-21T00:39:27;23.80;84.50
47813;DHT22;34221;45.296;9.516;2022-08-21T00:39:42;23.80;85.70
47813;DHT22;34221;45.296;9.516;2022-08-21T00:39:57;23.70;84.20
47813;DHT22;34221;45.296;9.516;2022-08-21T00:40:16;23.70;83.50
47813;DHT22;34221;45.296;9.516;2022-08-21T00:40:51;23.70;83.60
47813;DHT22;34221;45.296;9.516;2022-08-21T00:41:09;23.80;83.30
47813;DHT22;34221;45.296;9.516;2022-08-21T00:41:25;23.80;83.20
47813;DHT22;34221;45.296;9.516;2022-08-21T00:41:42;23.80;83.40
47813;DHT22;34221;45.296;9.516;2022-08-21T00:41:57;23.70;84.00
47813;DHT22;34221;45.296;9.516;2022-08-21T00:42:12;23.80;84.40
47813;DHT22;34221;45.296;9.516;2022-08-21T00:42:30;23.80;83.20
47813;DHT22;34221;45.296;9.516;2022-08-21T00:42:45;23.80;84.10
47813;DHT22;34221;45.296;9.516;2022-08-21T00:43:04;23.80;84.50
47813;DHT22;34221;45.296;9.516;2022-08-21T00:43:25;23.80;85.70
47813;DHT22;34221;45.296;9.516;2022-08-21T00:43:42;23.80;84.50
47813;DHT22;34221;45.296;9.516;2022-08-21T00:43:57;23.80;83.80
47813;DHT22;34221;45.296;9.516;2022-08-21T00:44:14;23.80;83.80
47813;DHT22;34221;45.296;9.516;2022-08-21T00:44:29;23.80;83.70
47813;DHT22;34221;45.296;9.516;2022-08-21T00:44:47;23.80;83.50
47813;DHT22;34221;45.296;9.516;2022-08-21T00:45:06;23.80;83.20
47813;DHT22;34221;45.296;9.516;2022-08-21T00:45:23;23.80;83.10
47813;DHT22;34221;45.296;9.516;2022-08-21T00:45:38;23.80;84.40
47813;DHT22;34221;45.296;9.516;2022-08-21T00:45:55;23.80;84.20
47813;DHT22;34221;45.296;9.516;2022-08-21T00:46:10;23.80;85.40
47813;DHT22;34221;45.296;9.516;2022-08-21T00:46:25;23.80;83.70
47813;DHT22;34221;45.296;9.516;2022-08-21T00:46:42;23.80;83.60
47813;DHT22;34221;45.296;9.516;2022-08-21T00:46:57;23.80;83.20
47813;DHT22;34221;45.296;9.516;2022-08-21T00:47:13;23.90;83.90
47813;DHT22;34221;45.296;9.516;2022-08-21T00:47:28;23.80;84.20
47813;DHT22;34221;45.296;9.516;2022-08-21T00:47:43;23.80;82.80
47813;DHT22;34221;45.296;9.516;2022-08-21T00:47:58;23.80;82.80
47813;DHT22;34221;45.296;9.516;2022-08-21T00:48:13;23.80;83.80
47813;DHT22;34221;45.296;9.516;2022-08-21T00:48:28;23.80;83.90
47813;DHT22;34221;45.296;9.516;2022-08-21T00:48:43;23.80;83.50
47813;DHT22;34221;45.296;9.516;2022-08-21T00:48:58;23.80;85.20
47813;DHT22;34221;45.296;9.516;2022-08-21T00:49:13;23.90;84.10
47813;DHT22;34221;45.296;9.516;2022-08-21T00:49:28;23.80;83.20
47813;DHT22;34221;45.296;9.516;2022-08-21T00:49:43;23.90;83.50
47813;DHT22;34221;45.296;9.516;2022-08-21T00:49:58;23.80;83.30
47813;DHT22;34221;45.296;9.516;2022-08-21T00:50:13;23.90;83.80
47813;DHT22;34221;45.296;9.516;2022-08-21T00:50:33;23.90;82.90
47813;DHT22;34221;45.296;9.516;2022-08-21T00:50:57;23.90;83.10
47813;DHT22;34221;45.296;9.516;2022-08-21T00:51:22;23.90;83.90
47813;DHT22;34221;45.296;9.516;2022-08-21T00:51:51;23.90;82.90
47813;DHT22;34221;45.296;9.516;2022-08-21T00:52:19;23.90;83.00
47813;DHT22;34221;45.296;9.516;2022-08-21T00:52:37;23.80;82.40
47813;DHT22;34221;45.296;9.516;2022-08-21T00:52:52;23.90;82.60
47813;DHT22;34221;45.296;9.516;2022-08-21T00:53:08;23.80;82.30
47813;DHT22;34221;45.296;9.516;2022-08-21T00:53:25;23.80;82.60
47813;DHT22;34221;45.296;9.516;2022-08-21T00:53:43;23.80;82.10
47813;DHT22;34221;45.296;9.516;2022-08-21T00:54:01;23.80;82.10
47813;DHT22;34221;45.296;9.516;2022-08-21T00:54:17;23.80;82.10
47813;DHT22;34221;45.296;9.516;2022-08-21T00:54:33;23.80;82.50
47813;DHT22;34221;45.296;9.516;2022-08-21T00:54:49;23.80;82.50
47813;DHT22;34221;45.296;9.516;2022-08-21T00:55:07;23.80;82.30
47813;DHT22;34221;45.296;9.516;2022-08-21T00:55:23;23.80;82.10
47813;DHT22;34221;45.296;9.516;2022-08-21T00:55:40;23.80;82.30
47813;DHT22;34221;45.296;9.516;2022-08-21T00:55:56;23.80;82.80
47813;DHT22;34221;45.296;9.516;2022-08-21T00:56:12;23.80;82.80
47813;DHT22;34221;45.296;9.516;2022-08-21T00:56:28;23.80;83.10
47813;DHT22;34221;45.296;9.516;2022-08-21T00:56:43;23.80;82.70
47813;DHT22;34221;45.296;9.516;2022-08-21T00:57:03;23.80;82.40
47813;DHT22;34221;45.296;9.516;2022-08-21T00:57:27;23.80;82.80
47813;DHT22;34221;45.296;9.516;2022-08-21T00:57:50;23.80;82.30
47813;DHT22;34221;45.296;9.516;2022-08-21T00:58:08;23.80;82.40
47813;DHT22;34221;45.296;9.516;2022-08-21T00:58:26;23.80;82.40
47813;DHT22;34221;45.296;9.516;2022-08-21T00:58:42;23.80;82.90
47813;DHT22;34221;45.296;9.516;2022-08-21T00:58:59;23.80;83.30
47813;DHT22;34221;45.296;9.516;2022-08-21T00:59:17;23.80;84.10
47813;DHT22;34221;45.296;9.516;2022-08-21T00:59:35;23.80;83.40
47813;DHT22;34221;45.296;9.516;2022-08-21T00:59:53;23.80;83.40
47813;DHT22;34221;45.296;9.516;2022-08-21T01:00:13;23.80;84.80
47813;DHT22;34221;45.296;9.516;2022-08-21T01:00:34;23.80;84.40
47813;DHT22;34221;45.296;9.516;2022-08-21T01:00:51;23.80;84.30
47813;DHT22;34221;45.296;9.516;2022-08-21T01:01:07;23.80;83.90
47813;DHT22;34221;45.296;9.516;2022-08-21T01:01:22;23.80;82.90
47813;DHT22;34221;45.296;9.516;2022-08-21T01:01:37;23.80;83.30
47813;DHT22;34221;45.296;9.516;2022-08-21T01:01:52;23.80;84.40
47813;DHT22;34221;45.296;9.516;2022-08-21T01:02:09;23.80;83.30
47813;DHT22;34221;45.296;9.516;2022-08-21T01:02:25;23.80;84.80
47813;DHT22;34221;45.296;9.516;2022-08-21T01:02:40;23.80;83.90
47813;DHT22;34221;45.296;9.516;2022-08-21T01:02:57;23.80;84.20
47813;DHT22;34221;45.296;9.516;2022-08-21T01:03:16;23.80;85.10
47813;DHT22;34221;45.296;9.516;2022-08-21T01:03:35;23.80;83.30
47813;DHT22;34221;45.296;9.516;2022-08-21T01:03:50;23.80;84.00
47813;DHT22;34221;45.296;9.516;2022-08-21T01:04:05;23.80;83.40
47813;DHT22;34221;45.296;9.516;2022-08-21T01:04:20;23.80;83.50
47813;DHT22;34221;45.296;9.516;2022-08-21T01:04:37;23.80;84.20
47813;DHT22;34221;45.296;9.516;2022-08-21T01:04:52;23.80;85.60
47813;DHT22;34221;45.296;9.516;2022-08-21T01:05:09;23.80;85.10
47813;DHT22;34221;45.296;9.516;2022-08-21T01:05:25;23.80;87.20
47813;DHT22;34221;45.296;9.516;2022-08-21T01:05:42;23.80;84.50
47813;DHT22;34221;45.296;9.516;2022-08-21T01:05:57;23.80;85.20
47813;DHT22;34221;45.296;9.516;2022-08-21T01:06:13;23.80;85.90
47813;DHT22;34221;45.296;9.516;2022-08-21T01:06:28;23.90;84.80
47813;DHT22;34221;45.296;9.516;2022-08-21T01:06:43;23.80;84.30
47813;DHT22;34221;45.296;9.516;2022-08-21T01:06:58;23.90;83.90
47813;DHT22;34221;45.296;9.516;2022-08-21T01:07:13;23.80;83.30
47813;DHT22;34221;45.296;9.516;2022-08-21T01:07:28;23.80;84.10
47813;DHT22;34221;45.296;9.516;2022-08-21T01:07:44;23.70;83.80
47813;DHT22;34221;45.296;9.516;2022-08-21T01:07:59;23.70;84.00
47813;DHT22;34221;45.296;9.516;2022-08-21T01:08:16;23.70;84.20
47813;DHT22;34221;45.296;9.516;2022-08-21T01:08:32;23.70;84.30
47813;DHT22;34221;45.296;9.516;2022-08-21T01:08:48;23.70;86.10
47813;DHT22;34221;45.296;9.516;2022-08-21T01:09:03;23.70;84.60
47813;DHT22;34221;45.296;9.516;2022-08-21T01:09:18;23.60;84.70
47813;DHT22;34221;45.296;9.516;2022-08-21T01:09:35;23.60;84.70
47813;DHT22;34221;45.296;9.516;2022-08-21T01:09:50;23.60;84.90
47813;DHT22;34221;45.296;9.516;2022-08-21T01:10:07;23.60;85.80
47813;DHT22;34221;45.296;9.516;2022-08-21T01:10:23;23.60;85.70
47813;DHT22;34221;45.296;9.516;2022-08-21T01:10:39;23.70;88.50
47813;DHT22;34221;45.296;9.516;2022-08-21T01:10:54;23.70;86.80
47813;DHT22;34221;45.296;9.516;2022-08-21T01:11:16;23.70;86.20
47813;DHT22;34221;45.296;9.516;2022-08-21T01:11:31;23.70;86.20
47813;DHT22;34221;45.296;9.516;2022-08-21T01:11:47;23.70;85.80
47813;DHT22;34221;45.296;9.516;2022-08-21T01:12:02;23.70;86.90
47813;DHT22;34221;45.296;9.516;2022-08-21T01:12:18;23.70;88.00
47813;DHT22;34221;45.296;9.516;2022-08-21T01:12:34;23.70;87.50
47813;DHT22;34221;45.296;9.516;2022-08-21T01:12:52;23.70;86.50
47813;DHT22;34221;45.296;9.516;2022-08-21T01:13:11;23.70;86.50
47813;DHT22;34221;45.296;9.516;2022-08-21T01:13:32;23.70;86.60
47813;DHT22;34221;45.296;9.516;2022-08-21T01:13:50;23.80;86.20
47813;DHT22;34221;45.296;9.516;2022-08-21T01:14:06;23.70;84.90
47813;DHT22;34221;45.296;9.516;2022-08-21T01:14:21;23.70;85.90
47813;DHT22;34221;45.296;9.516;2022-08-21T01:14:36;23.80;87.00
47813;DHT22;34221;45.296;9.516;2022-08-21T01:14:51;23.80;86.50
47813;DHT22;34221;45.296;9.516;2022-08-21T01:15:11;23.80;85.20
47813;DHT22;34221;45.296;9.516;2022-08-21T01:15:32;23.70;86.00
47813;DHT22;34221;45.296;9.516;2022-08-21T01:15:50;23.80;85.50
47813;DHT22;34221;45.296;9.516;2022-08-21T01:16:09;23.80;85.60
47813;DHT22;34221;45.296;9.516;2022-08-21T01:16:24;23.80;85.90
47813;DHT22;34221;45.296;9.516;2022-08-21T01:16:44;23.80;85.60
47813;DHT22;34221;45.296;9.516;2022-08-21T01:17:02;23.80;85.90
47813;DHT22;34221;45.296;9.516;2022-08-21T01:17:19;23.80;86.60
47813;DHT22;34221;45.296;9.516;2022-08-21T01:17:36;23.80;85.70
47813;DHT22;34221;45.296;9.516;2022-08-21T01:17:52;23.80;85.30
47813;DHT22;34221;45.296;9.516;2022-08-21T01:18:10;23.80;85.60
47813;DHT22;34221;45.296;9.516;2022-08-21T01:18:26;23.80;85.60
47813;DHT22;34221;45.296;9.516;2022-08-21T01:18:42;23.80;86.60
47813;DHT22;34221;45.296;9.516;2022-08-21T01:18:58;23.80;86.90
47813;DHT22;34221;45.296;9.516;2022-08-21T01:19:13;23.80;84.70
47813;DHT22;34221;45.296;9.516;2022-08-21T01:19:30;23.80;85.10
47813;DHT22;34221;45.296;9.516;2022-08-21T01:19:45;23.80;86.50
47813;DHT22;34221;45.296;9.516;2022-08-21T01:20:01;23.80;85.40
47813;DHT22;34221;45.296;9.516;2022-08-21T01:20:19;23.80;84.30
47813;DHT22;34221;45.296;9.516;2022-08-21T01:20:35;23.80;85.00
47813;DHT22;34221;45.296;9.516;2022-08-21T01:21:21;23.80;86.90
47813;DHT22;34221;45.296;9.516;2022-08-21T01:21:38;23.80;86.40
47813;DHT22;34221;45.296;9.516;2022-08-21T01:21:53;23.80;86.80
47813;DHT22;34221;45.296;9.516;2022-08-21T01:22:09;23.80;85.90
47813;DHT22;34221;45.296;9.516;2022-08-21T01:22:42;23.80;86.50
47813;DHT22;34221;45.296;9.516;2022-08-21T01:22:57;23.80;86.40
47813;DHT22;34221;45.296;9.516;2022-08-21T01:23:12;23.80;85.90
47813;DHT22;34221;45.296;9.516;2022-08-21T01:23:27;23.70;86.30
47813;DHT22;34221;45.296;9.516;2022-08-21T01:23:45;23.70;86.30
47813;DHT22;34221;45.296;9.516;2022-08-21T01:24:03;23.70;87.30
47813;DHT22;34221;45.296;9.516;2022-08-21T01:24:19;23.70;86.60
47813;DHT22;34221;45.296;9.516;2022-08-21T01:24:35;23.70;86.10
47813;DHT22;34221;45.296;9.516;2022-08-21T01:24:50;23.70;87.70
47813;DHT22;34221;45.296;9.516;2022-08-21T01:25:07;23.70;86.40
47813;DHT22;34221;45.296;9.516;2022-08-21T01:25:23;23.70;86.70
47813;DHT22;34221;45.296;9.516;2022-08-21T01:25:38;23.70;85.70
47813;DHT22;34221;45.296;9.516;2022-08-21T01:25:53;23.70;86.60
47813;DHT22;34221;45.296;9.516;2022-08-21T01:26:09;23.70;87.10
47813;DHT22;34221;45.296;9.516;2022-08-21T01:26:30;23.60;86.10
47813;DHT22;34221;45.296;9.516;2022-08-21T01:26:46;23.60;86.60
47813;DHT22;34221;45.296;9.516;2022-08-21T01:27:03;23.70;86.50
47813;DHT22;34221;45.296;9.516;2022-08-21T01:27:18;23.60;85.70
47813;DHT22;34221;45.296;9.516;2022-08-21T01:27:34;23.60;85.40
47813;DHT22;34221;45.296;9.516;2022-08-21T01:27:49;23.60;86.20
47813;DHT22;34221;45.296;9.516;2022-08-21T01:28:13;23.60;86.80
47813;DHT22;34221;45.296;9.516;2022-08-21T01:28:31;23.60;86.10
47813;DHT22;34221;45.296;9.516;2022-08-21T01:29:07;23.60;87.60
47813;DHT22;34221;45.296;9.516;2022-08-21T01:29:44;23.60;87.50
47813;DHT22;34221;45.296;9.516;2022-08-21T01:30:16;23.60;87.30
47813;DHT22;34221;45.296;9.516;2022-08-21T01:30:35;23.50;87.40
47813;DHT22;34221;45.296;9.516;2022-08-21T01:30:51;23.50;86.90
47813;DHT22;34221;45.296;9.516;2022-08-21T01:31:08;23.50;86.90
47813;DHT22;34221;45.296;9.516;2022-08-21T01:31:27;23.50;87.80
47813;DHT22;34221;45.296;9.516;2022-08-21T01:31:43;23.50;87.60
47813;DHT22;34221;45.296;9.516;2022-08-21T01:32:02;23.50;88.00
47813;DHT22;34221;45.296;9.516;2022-08-21T01:32:20;23.50;88.30
47813;DHT22;34221;45.296;9.516;2022-08-21T01:32:35;23.40;87.60
47813;DHT22;34221;45.296;9.516;2022-08-21T01:32:51;23.40;88.40
47813;DHT22;34221;45.296;9.516;2022-08-21T01:33:07;23.40;89.10
47813;DHT22;34221;45.296;9.516;2022-08-21T01:33:24;23.40;88.10
47813;DHT22;34221;45.296;9.516;2022-08-21T01:33:40;23.40;87.90
47813;DHT22;34221;45.296;9.516;2022-08-21T01:33:56;23.40;87.40
47813;DHT22;34221;45.296;9.516;2022-08-21T01:34:13;23.40;87.30
47813;DHT22;34221;45.296;9.516;2022-08-21T01:34:28;23.40;88.30
47813;DHT22;34221;45.296;9.516;2022-08-21T01:34:46;23.40;89.30
47813;DHT22;34221;45.296;9.516;2022-08-21T01:35:03;23.40;90.10
47813;DHT22;34221;45.296;9.516;2022-08-21T01:35:19;23.40;88.50
47813;DHT22;34221;45.296;9.516;2022-08-21T01:35:35;23.40;88.20
47813;DHT22;34221;45.296;9.516;2022-08-21T01:35:50;23.40;87.50
47813;DHT22;34221;45.296;9.516;2022-08-21T01:36:06;23.40;87.70
47813;DHT22;34221;45.296;9.516;2022-08-21T01:36:21;23.40;86.80
47813;DHT22;34221;45.296;9.516;2022-08-21T01:36:37;23.40;87.00
47813;DHT22;34221;45.296;9.516;2022-08-21T01:36:52;23.40;88.70
47813;DHT22;34221;45.296;9.516;2022-08-21T01:37:07;23.40;88.10
47813;DHT22;34221;45.296;9.516;2022-08-21T01:37:23;23.40;88.50
47813;DHT22;34221;45.296;9.516;2022-08-21T01:37:38;23.50;90.00
47813;DHT22;34221;45.296;9.516;2022-08-21T01:37:53;23.50;90.30
47813;DHT22;34221;45.296;9.516;2022-08-21T01:38:08;23.50;87.80
47813;DHT22;34221;45.296;9.516;2022-08-21T01:38:23;23.50;87.30
47813;DHT22;34221;45.296;9.516;2022-08-21T01:38:39;23.50;87.80
47813;DHT22;34221;45.296;9.516;2022-08-21T01:38:54;23.50;87.40
47813;DHT22;34221;45.296;9.516;2022-08-21T01:39:10;23.50;86.90
47813;DHT22;34221;45.296;9.516;2022-08-21T01:39:25;23.50;86.80
47813;DHT22;34221;45.296;9.516;2022-08-21T01:39:41;23.50;86.90
47813;DHT22;34221;45.296;9.516;2022-08-21T01:39:56;23.50;87.80
47813;DHT22;34221;45.296;9.516;2022-08-21T01:40:12;23.50;88.60
47813;DHT22;34221;45.296;9.516;2022-08-21T01:40:30;23.50;88.60
47813;DHT22;34221;45.296;9.516;2022-08-21T01:40:45;23.50;87.20
47813;DHT22;34221;45.296;9.516;2022-08-21T01:41:00;23.50;86.40
47813;DHT22;34221;45.296;9.516;2022-08-21T01:41:16;23.50;86.50
47813;DHT22;34221;45.296;9.516;2022-08-21T01:41:31;23.50;86.70
47813;DHT22;34221;45.296;9.516;2022-08-21T01:41:46;23.50;86.60
47813;DHT22;34221;45.296;9.516;2022-08-21T01:42:01;23.50;86.40
47813;DHT22;34221;45.296;9.516;2022-08-21T01:42:16;23.50;86.40
47813;DHT22;34221;45.296;9.516;2022-08-21T01:42:31;23.50;86.10
47813;DHT22;34221;45.296;9.516;2022-08-21T01:42:46;23.50;85.70
47813;DHT22;34221;45.296;9.516;2022-08-21T01:43:01;23.50;85.80
47813;DHT22;34221;45.296;9.516;2022-08-21T01:43:17;23.50;85.90
47813;DHT22;34221;45.296;9.516;2022-08-21T01:43:32;23.50;86.90
47813;DHT22;34221;45.296;9.516;2022-08-21T01:43:47;23.50;86.80
47813;DHT22;34221;45.296;9.516;2022-08-21T01:44:03;23.50;86.70
47813;DHT22;34221;45.296;9.516;2022-08-21T01:44:21;23.50;87.20
47813;DHT22;34221;45.296;9.516;2022-08-21T01:44:37;23.50;86.90
47813;DHT22;34221;45.296;9.516;2022-08-21T01:44:52;23.50;87.70
47813;DHT22;34221;45.296;9.516;2022-08-21T01:45:08;23.50;86.90
47813;DHT22;34221;45.296;9.516;2022-08-21T01:45:23;23.50;87.20